createdAt,value
2023-01-21T00:01:04.434Z,99743.81
2023-01-21T00:03:32.263Z,99740.16
2023-01-21T00:05:59.721Z,99739.13
2023-01-21T00:08:27.111Z,99739.34
2023-01-21T00:10:54.581Z,99723.66
2023-01-21T00:13:21.777Z,99734.47
2023-01-21T00:15:49.015Z,99732.28
2023-01-21T00:18:15.825Z,99735.44
2023-01-21T00:20:42.908Z,99736.41
2023-01-21T00:23:10.951Z,99738.03
2023-01-21T00:25:38.099Z,99737.34
2023-01-21T00:28:05.012Z,99736.34
2023-01-21T00:30:32.263Z,99738.44
2023-01-21T00:32:59.033Z,99742.56
2023-01-21T00:35:26.092Z,99740.34
2023-01-21T00:37:52.919Z,99745.47
2023-01-21T00:40:20.626Z,99744.59
2023-01-21T00:42:47.655Z,99736.53
2023-01-21T00:45:14.682Z,99739.44
2023-01-21T00:47:41.791Z,99733.25
2023-01-21T00:50:09.835Z,99736.44
2023-01-21T00:52:36.761Z,99736.41
2023-01-21T00:55:04.316Z,99737.97
2023-01-21T00:57:31.334Z,99746.91
2023-01-21T00:59:58.411Z,99737.19
2023-01-21T01:02:25.284Z,99735.50
2023-01-21T01:04:52.373Z,99739.56
2023-01-21T01:07:19.182Z,99734.47
2023-01-21T01:09:46.229Z,99740.91
2023-01-21T01:12:13.074Z,99744.94
2023-01-21T01:14:40.120Z,99750.31
2023-01-21T01:17:06.899Z,99744.28
2023-01-21T01:19:33.915Z,99749.59
2023-01-21T01:22:00.684Z,99763.44
2023-01-21T01:24:27.727Z,99768.50
2023-01-21T01:26:54.486Z,99761.47
2023-01-21T01:29:21.519Z,99763.09
2023-01-21T01:31:48.407Z,99752.47
2023-01-21T01:34:15.479Z,99759.63
2023-01-21T01:36:42.248Z,99755.88
2023-01-21T01:39:09.299Z,99749.69
2023-01-21T01:41:36.579Z,99747.22
2023-01-21T01:44:23.562Z,99751.75
2023-01-21T01:46:50.692Z,99752.69
2023-01-21T01:49:21.532Z,99741.69
2023-01-21T01:52:03.223Z,99744.97
2023-01-21T01:54:38.448Z,99745.72
2023-01-21T01:57:09.067Z,99736.91
2023-01-21T01:59:36.866Z,99742.81
2023-01-21T02:02:10.988Z,99744.50
2023-01-21T02:04:55.316Z,99738.41
2023-01-21T02:07:23.675Z,99733.13
2023-01-21T02:09:53.358Z,99726.34
2023-01-21T02:12:21.031Z,99736.19
2023-01-21T02:14:51.428Z,99739.34
2023-01-21T02:17:43.296Z,99731.53
2023-01-21T02:20:39.969Z,99736.84
2023-01-21T02:23:21.744Z,99736.94
2023-01-21T02:26:07.561Z,99732.31
2023-01-21T02:28:52.811Z,99738.25
2023-01-21T02:31:38.227Z,99739.94
2023-01-21T02:34:48.222Z,99736.38
2023-01-21T02:37:29.688Z,99745.00
2023-01-21T02:40:06.586Z,99741.44
2023-01-21T02:42:45.733Z,99738.91
2023-01-21T02:45:35.848Z,99744.88
2023-01-21T02:48:14.015Z,99745.69
2023-01-21T02:50:43.838Z,99753.22
2023-01-21T02:53:27.619Z,99749.97
2023-01-21T02:55:55.624Z,99745.63
2023-01-21T02:58:27.997Z,99739.69
2023-01-21T03:01:35.505Z,99747.44
2023-01-21T03:04:38.510Z,99739.50
2023-01-21T03:07:34.618Z,99731.66
2023-01-21T03:10:17.424Z,99729.13
2023-01-21T03:13:01.012Z,99725.16
2023-01-21T03:15:54.842Z,99727.78
2023-01-21T03:18:36.845Z,99731.91
2023-01-21T03:21:31.146Z,99745.78
2023-01-21T03:23:58.910Z,99738.97
2023-01-21T03:26:48.517Z,99752.97
2023-01-21T03:29:21.360Z,99753.72
2023-01-21T03:31:53.793Z,99747.78
2023-01-21T03:34:24.712Z,99745.97
2023-01-21T03:37:05.020Z,99736.47
2023-01-21T03:39:43.780Z,99741.50
2023-01-21T03:42:11.123Z,99760.53
2023-01-21T03:44:39.375Z,99767.50
2023-01-21T03:47:34.775Z,99771.09
2023-01-21T03:50:07.333Z,99777.00
2023-01-21T03:52:34.473Z,99780.94
2023-01-21T03:55:01.535Z,99779.16
2023-01-21T03:57:28.647Z,99775.59
2023-01-21T03:59:56.173Z,99776.34
2023-01-21T04:02:23.458Z,99782.63
2023-01-21T04:04:53.112Z,99780.81
2023-01-21T04:07:20.256Z,99786.97
2023-01-21T04:09:47.071Z,99793.28
2023-01-21T04:12:14.110Z,99803.81
2023-01-21T04:14:40.994Z,99804.22
2023-01-21T04:17:08.425Z,99796.28
2023-01-21T04:19:35.268Z,99802.31
2023-01-21T04:22:02.368Z,99797.91
2023-01-21T04:24:29.203Z,99807.66
2023-01-21T04:26:56.256Z,99812.84
2023-01-21T04:29:23.182Z,99815.56
2023-01-21T04:31:50.340Z,99815.84
2023-01-21T04:34:17.284Z,99816.38
2023-01-21T04:36:44.400Z,99824.38
2023-01-21T04:39:11.519Z,99833.00
2023-01-21T04:41:38.669Z,99830.34
2023-01-21T04:44:05.932Z,99834.75
2023-01-21T04:46:32.992Z,99836.44
2023-01-21T04:48:59.723Z,99845.97
2023-01-21T04:51:26.792Z,99838.72
2023-01-21T04:53:53.554Z,99839.53
2023-01-21T04:56:20.726Z,99845.59
2023-01-21T04:58:47.506Z,99847.56
2023-01-21T05:01:14.674Z,99854.44
2023-01-21T05:03:41.480Z,99862.09
2023-01-21T05:06:08.561Z,99864.47
2023-01-21T05:08:35.316Z,99857.56
2023-01-21T05:11:02.482Z,99862.81
2023-01-21T05:13:29.243Z,99869.66
2023-01-21T05:15:56.377Z,99867.84
2023-01-21T05:18:23.216Z,99867.53
2023-01-21T05:20:50.265Z,99865.09
2023-01-21T05:23:17.052Z,99868.41
2023-01-21T05:25:44.096Z,99867.69
2023-01-21T05:28:10.919Z,99883.03
2023-01-21T05:30:40.270Z,99888.41
2023-01-21T05:33:07.978Z,99894.53
2023-01-21T05:35:35.743Z,99885.06
2023-01-21T05:38:02.500Z,99879.84
2023-01-21T05:40:29.622Z,99885.69
2023-01-21T05:42:56.423Z,99889.38
2023-01-21T05:45:23.545Z,99898.22
2023-01-21T05:47:50.478Z,99900.75
2023-01-21T05:50:18.410Z,99904.19
2023-01-21T05:52:45.442Z,99910.28
2023-01-21T05:55:12.612Z,99916.19
2023-01-21T05:57:39.407Z,99917.97
2023-01-21T06:00:07.090Z,99916.13
2023-01-21T06:02:34.037Z,99919.56
2023-01-21T06:05:01.148Z,99920.41
2023-01-21T06:07:27.925Z,99921.22
2023-01-21T06:09:55.004Z,99929.06
2023-01-21T06:12:23.897Z,99930.63
2023-01-21T06:14:51.876Z,99932.25
2023-01-21T06:17:18.811Z,99919.44
2023-01-21T06:19:45.860Z,99928.88
2023-01-21T06:22:16.702Z,99929.78
2023-01-21T06:24:44.038Z,99935.88
2023-01-21T06:27:11.029Z,99936.69
2023-01-21T06:29:38.114Z,99934.00
2023-01-21T06:32:05.343Z,99949.47
2023-01-21T06:34:32.431Z,99949.34
2023-01-21T06:36:59.251Z,99950.41
2023-01-21T06:39:26.341Z,99958.09
2023-01-21T06:41:55.227Z,99966.78
2023-01-21T06:44:22.799Z,99964.75
2023-01-21T06:47:00.714Z,99962.41
2023-01-21T06:49:28.360Z,99966.34
2023-01-21T06:51:56.355Z,99968.91
2023-01-21T06:54:23.445Z,99962.75
2023-01-21T06:56:50.224Z,99971.44
2023-01-21T06:59:17.286Z,99981.19
2023-01-21T07:01:44.428Z,99978.38
2023-01-21T07:04:11.790Z,99976.81
2023-01-21T07:06:39.016Z,99985.19
2023-01-21T07:09:07.156Z,99983.25
2023-01-21T07:11:34.619Z,99986.06
2023-01-21T07:14:01.651Z,99991.97
2023-01-21T07:16:28.509Z,99992.00
2023-01-21T07:18:55.550Z,99995.50
2023-01-21T07:21:24.807Z,100003.25
2023-01-21T07:23:53.038Z,100005.91
2023-01-21T07:26:20.108Z,100020.53
2023-01-21T07:28:47.228Z,100021.34
2023-01-21T07:31:14.334Z,100027.53
2023-01-21T07:33:41.427Z,100033.50
2023-01-21T07:36:08.479Z,100032.53
2023-01-21T07:38:35.607Z,100045.53
2023-01-21T07:41:02.403Z,100044.50
2023-01-21T07:43:29.530Z,100045.13
2023-01-21T07:45:59.209Z,100046.88
2023-01-21T07:48:27.065Z,100050.28
2023-01-21T07:50:58.564Z,100047.91
2023-01-21T07:53:26.303Z,100052.22
2023-01-21T07:55:53.105Z,100057.50
2023-01-21T07:58:20.178Z,100063.50
2023-01-21T08:00:46.968Z,100057.50
2023-01-21T08:03:14.011Z,100065.31
2023-01-21T08:05:40.821Z,100065.22
2023-01-21T08:08:07.909Z,100069.50
2023-01-21T08:10:34.672Z,100068.53
2023-01-21T08:13:02.108Z,100064.09
2023-01-21T08:15:29.038Z,100068.28
2023-01-21T08:17:56.824Z,100072.56
2023-01-21T08:20:23.859Z,100071.66
2023-01-21T08:22:51.078Z,100072.34
2023-01-21T08:25:18.402Z,100067.88
2023-01-21T08:27:45.537Z,100065.16
2023-01-21T08:30:12.662Z,100072.09
2023-01-21T08:32:39.751Z,100065.94
2023-01-21T08:35:07.259Z,100071.81
2023-01-21T08:37:34.393Z,100077.81
2023-01-21T08:40:01.341Z,100073.47
2023-01-21T08:42:29.105Z,100081.44
2023-01-21T08:44:55.933Z,100086.47
2023-01-21T08:47:26.030Z,100088.28
2023-01-21T08:49:52.779Z,100085.38
2023-01-21T08:52:21.566Z,100091.63
2023-01-21T08:54:50.669Z,100089.19
2023-01-21T08:57:17.864Z,100088.34
2023-01-21T08:59:44.635Z,100097.94
2023-01-21T09:02:12.580Z,100098.69
2023-01-21T09:04:39.435Z,100111.63
2023-01-21T09:07:06.676Z,100104.63
2023-01-21T09:09:33.769Z,100104.75
2023-01-21T09:12:00.900Z,100109.03
2023-01-21T09:14:29.050Z,100107.84
2023-01-21T09:16:56.329Z,100098.22
2023-01-21T09:19:24.006Z,100108.41
2023-01-21T09:21:55.561Z,100110.16
2023-01-21T09:24:22.480Z,100108.91
2023-01-21T09:26:49.555Z,100114.50
2023-01-21T09:29:16.434Z,100112.03
2023-01-21T09:31:43.633Z,100117.28
2023-01-21T09:34:11.800Z,100111.00
2023-01-21T09:36:39.692Z,100115.19
2023-01-21T09:39:07.113Z,100111.69
2023-01-21T09:41:36.502Z,100107.44
2023-01-21T09:44:43.833Z,100112.59
2023-01-21T09:47:32.188Z,100111.50
2023-01-21T09:50:14.240Z,100104.25
2023-01-21T09:52:54.463Z,100104.97
2023-01-21T09:55:31.501Z,100101.34
2023-01-21T09:58:17.730Z,100107.25
2023-01-21T10:01:14.670Z,100103.69
2023-01-21T10:03:53.189Z,100104.59
2023-01-21T10:06:32.926Z,100105.25
2023-01-21T10:09:18.671Z,100107.56
2023-01-21T10:12:16.508Z,100096.72
2023-01-21T10:15:16.244Z,100104.38
2023-01-21T10:18:17.959Z,100104.13
2023-01-21T10:20:56.939Z,100111.00
2023-01-21T10:23:28.929Z,100113.25
2023-01-21T10:25:59.119Z,100117.34
2023-01-21T10:28:33.247Z,100115.75
2023-01-21T10:31:20.485Z,100123.78
2023-01-21T10:33:47.376Z,100128.19
2023-01-21T10:36:38.511Z,100123.38
2023-01-21T10:39:17.096Z,100128.41
2023-01-21T10:42:16.124Z,100132.81
2023-01-21T10:45:08.379Z,100130.28
2023-01-21T10:47:49.061Z,100132.78
2023-01-21T10:50:27.789Z,100121.69
2023-01-21T10:53:07.738Z,100137.19
2023-01-21T10:56:02.931Z,100134.72
2023-01-21T10:58:48.083Z,100129.47
2023-01-21T11:01:34.379Z,100126.56
2023-01-21T11:04:16.872Z,100124.16
2023-01-21T11:06:57.553Z,100125.97
2023-01-21T11:09:27.831Z,100121.56
2023-01-21T11:11:54.637Z,100128.28
2023-01-21T11:14:22.029Z,100117.84
2023-01-21T11:16:50.292Z,100121.31
2023-01-21T11:19:24.393Z,100125.72
2023-01-21T11:22:04.513Z,100115.16
2023-01-21T11:24:42.340Z,100119.41
2023-01-21T11:27:19.406Z,100121.25
2023-01-21T11:29:48.644Z,100115.06
2023-01-21T11:32:23.360Z,100116.69
2023-01-21T11:34:55.142Z,100111.59
2023-01-21T11:37:30.074Z,100117.53
2023-01-21T11:40:06.054Z,100111.22
2023-01-21T11:42:33.127Z,100115.34
2023-01-21T11:45:23.998Z,100108.94
2023-01-21T11:47:51.714Z,100109.34
2023-01-21T11:50:34.605Z,100101.47
2023-01-21T11:53:07.858Z,100101.22
2023-01-21T11:55:50.220Z,100106.97
2023-01-21T11:58:24.874Z,100106.06
2023-01-21T12:00:55.737Z,100106.78
2023-01-21T12:03:34.526Z,100109.56
2023-01-21T12:06:02.413Z,100117.59
2023-01-21T12:08:32.720Z,100122.94
2023-01-21T12:11:04.582Z,100114.59
2023-01-21T12:13:52.931Z,100117.34
2023-01-21T12:16:54.826Z,100116.56
2023-01-21T12:19:33.463Z,100116.38
2023-01-21T12:22:26.063Z,100117.72
2023-01-21T12:25:07.794Z,100122.75
2023-01-21T12:27:59.630Z,100125.63
2023-01-21T12:30:51.073Z,100130.25
2023-01-21T12:33:30.196Z,100136.41
2023-01-21T12:36:01.530Z,100132.00
2023-01-21T12:38:46.320Z,100133.63
2023-01-21T12:41:18.699Z,100131.22
2023-01-21T12:43:50.334Z,100134.59
2023-01-21T12:46:22.403Z,100143.88
2023-01-21T12:49:02.509Z,100146.06
2023-01-21T12:51:41.196Z,100145.38
2023-01-21T12:54:14.045Z,100141.78
2023-01-21T12:56:50.813Z,100140.41
2023-01-21T12:59:17.848Z,100150.19
2023-01-21T13:01:57.335Z,100151.50
2023-01-21T13:04:40.284Z,100149.28
2023-01-21T13:07:29.624Z,100159.75
2023-01-21T13:10:35.640Z,100162.81
2023-01-21T13:13:04.786Z,100161.19
2023-01-21T13:15:36.991Z,100164.63
2023-01-21T13:18:32.530Z,100172.53
2023-01-21T13:21:28.218Z,100175.94
2023-01-21T13:24:19.877Z,100172.00
2023-01-21T13:27:04.772Z,100165.88
2023-01-21T13:29:48.165Z,100179.75
2023-01-21T13:32:36.677Z,100175.44
2023-01-21T13:35:09.500Z,100181.75
2023-01-21T13:37:54.581Z,100181.88
2023-01-21T13:41:01.592Z,100180.84
2023-01-21T13:43:55.156Z,100178.31
2023-01-21T13:46:58.956Z,100187.88
2023-01-21T13:49:49.430Z,100189.00
2023-01-21T13:52:28.289Z,100193.53
2023-01-21T13:55:10.340Z,100198.47
2023-01-21T13:58:02.923Z,100189.66
2023-01-21T14:00:56.823Z,100202.69
2023-01-21T14:03:55.913Z,100206.13
2023-01-21T14:06:34.515Z,100216.47
2023-01-21T14:09:13.336Z,100215.75
2023-01-21T14:12:01.781Z,100212.00
2023-01-21T14:14:34.494Z,100219.81
2023-01-21T14:17:13.583Z,100221.13
2023-01-21T14:20:24.579Z,100223.09
2023-01-21T14:23:36.277Z,100219.59
2023-01-21T14:26:05.741Z,100226.38
2023-01-21T14:28:57.533Z,100227.66
2023-01-21T14:31:36.534Z,100229.59
2023-01-21T14:34:20.762Z,100232.19
2023-01-21T14:37:08.845Z,100230.50
2023-01-21T14:40:23.441Z,100250.19
2023-01-21T14:42:51.597Z,100251.13
2023-01-21T14:45:22.604Z,100248.69
2023-01-21T14:47:57.790Z,100253.22
2023-01-21T14:50:43.413Z,100253.63
2023-01-21T14:53:18.848Z,100256.28
2023-01-21T14:55:46.020Z,100254.41
2023-01-21T14:58:26.641Z,100252.53
2023-01-21T15:00:53.994Z,100250.16
2023-01-21T15:03:28.394Z,100256.44
2023-01-21T15:06:00.255Z,100255.47
2023-01-21T15:08:30.300Z,100253.63
2023-01-21T15:11:06.467Z,100266.69
2023-01-21T15:13:33.226Z,100259.00
2023-01-21T15:16:32.382Z,100253.97
2023-01-21T15:19:05.285Z,100262.66
2023-01-21T15:21:41.439Z,100266.09
2023-01-21T15:24:17.081Z,100276.47
2023-01-21T15:27:18.086Z,100282.47
2023-01-21T15:29:53.792Z,100279.16
2023-01-21T15:32:23.976Z,100272.56
2023-01-21T15:35:38.948Z,100274.50
2023-01-21T15:38:10.982Z,100277.84
2023-01-21T15:40:48.745Z,100270.03
2023-01-21T15:43:45.304Z,100283.84
2023-01-21T15:46:46.119Z,100295.09
2023-01-21T15:49:31.308Z,100291.66
2023-01-21T15:52:06.247Z,100288.94
2023-01-21T15:55:10.922Z,100288.13
2023-01-21T15:57:51.368Z,100287.25
2023-01-21T16:00:47.248Z,100290.09
2023-01-21T16:03:19.805Z,100296.09
2023-01-21T16:06:07.744Z,100303.88
2023-01-21T16:09:05.878Z,100295.03
2023-01-21T16:12:00.458Z,100303.63
2023-01-21T16:15:06.332Z,100313.09
2023-01-21T16:17:57.711Z,100326.97
2023-01-21T16:20:24.821Z,100332.13
2023-01-21T16:22:57.430Z,100336.63
2023-01-21T16:25:25.460Z,100338.09
2023-01-21T16:27:55.965Z,100342.53
2023-01-21T16:30:31.130Z,100347.00
2023-01-21T16:33:15.324Z,100342.91
2023-01-21T16:35:56.093Z,100334.97
2023-01-21T16:38:29.174Z,100339.19
2023-01-21T16:41:08.062Z,100342.63
2023-01-21T16:43:45.830Z,100344.59
2023-01-21T16:46:15.755Z,100339.50
2023-01-21T16:48:43.716Z,100340.25
2023-01-21T16:51:20.111Z,100339.34
2023-01-21T16:53:47.487Z,100333.47
2023-01-21T16:56:29.208Z,100343.78
2023-01-21T16:58:56.266Z,100336.03
2023-01-21T17:01:25.732Z,100340.44
2023-01-21T17:03:52.951Z,100354.50
2023-01-21T17:06:22.496Z,100348.59
2023-01-21T17:09:05.124Z,100346.78
2023-01-21T17:11:33.629Z,100350.28
2023-01-21T17:14:07.472Z,100353.59
2023-01-21T17:16:36.523Z,100351.81
2023-01-21T17:19:08.273Z,100351.06
2023-01-21T17:21:42.696Z,100351.75
2023-01-21T17:24:45.532Z,100362.22
2023-01-21T17:27:18.299Z,100360.50
2023-01-21T17:29:46.688Z,100348.50
2023-01-21T17:32:34.205Z,100360.47
2023-01-21T17:35:20.482Z,100356.34
2023-01-21T17:38:00.639Z,100357.19
2023-01-21T17:40:37.663Z,100362.41
2023-01-21T17:43:21.431Z,100361.47
2023-01-21T17:45:51.649Z,100371.75
2023-01-21T17:48:44.598Z,100363.84
2023-01-21T17:51:16.356Z,100373.38
2023-01-21T17:53:52.634Z,100370.81
2023-01-21T17:56:36.905Z,100369.16
2023-01-21T17:59:04.391Z,100374.41
2023-01-21T18:01:32.061Z,100373.44
2023-01-21T18:03:59.100Z,100390.78
2023-01-21T18:06:28.300Z,100393.34
2023-01-21T18:08:58.267Z,100392.44
2023-01-21T18:11:25.524Z,100388.88
2023-01-21T18:13:52.724Z,100399.31
2023-01-21T18:16:20.000Z,100403.75
2023-01-21T18:18:46.930Z,100407.16
2023-01-21T18:21:19.938Z,100418.31
2023-01-21T18:23:48.094Z,100418.28
2023-01-21T18:26:26.558Z,100425.22
2023-01-21T18:28:53.540Z,100421.63
2023-01-21T18:31:21.430Z,100417.50
2023-01-21T18:33:48.398Z,100417.50
2023-01-21T18:36:15.435Z,100409.75
2023-01-21T18:38:42.360Z,100419.31
2023-01-21T18:41:11.767Z,100416.75
2023-01-21T18:43:38.635Z,100420.06
2023-01-21T18:46:11.204Z,100415.91
2023-01-21T18:48:38.035Z,100417.59
2023-01-21T18:51:05.491Z,100421.72
2023-01-21T18:53:32.296Z,100423.47
2023-01-21T18:55:59.473Z,100406.84
2023-01-21T18:58:26.441Z,100414.72
2023-01-21T19:00:53.761Z,100417.47
2023-01-21T19:03:22.772Z,100424.44
2023-01-21T19:05:50.980Z,100413.09
2023-01-21T19:08:21.950Z,100424.38
2023-01-21T19:10:49.138Z,100433.94
2023-01-21T19:13:15.961Z,100435.59
2023-01-21T19:15:45.237Z,100443.47
2023-01-21T19:18:13.859Z,100446.00
2023-01-21T19:20:42.207Z,100455.41
2023-01-21T19:23:17.715Z,100452.00
2023-01-21T19:25:52.458Z,100460.47
2023-01-21T19:28:19.933Z,100458.13
2023-01-21T19:30:49.393Z,100464.81
2023-01-21T19:33:16.833Z,100472.53
2023-01-21T19:35:45.967Z,100470.84
2023-01-21T19:38:16.417Z,100482.19
2023-01-21T19:40:43.795Z,100471.59
2023-01-21T19:43:14.392Z,100471.22
2023-01-21T19:45:42.038Z,100463.41
2023-01-21T19:48:14.589Z,100461.56
2023-01-21T19:50:42.307Z,100470.41
2023-01-21T19:53:15.363Z,100461.09
2023-01-21T19:55:44.215Z,100461.84
2023-01-21T19:58:23.681Z,100452.56
2023-01-21T20:00:53.510Z,100464.72
2023-01-21T20:03:23.336Z,100461.09
2023-01-21T20:05:57.550Z,100457.66
2023-01-21T20:08:26.321Z,100466.56
2023-01-21T20:10:53.589Z,100461.41
2023-01-21T20:13:20.497Z,100461.44
2023-01-21T20:15:50.175Z,100458.03
2023-01-21T20:18:27.322Z,100466.47
2023-01-21T20:20:54.512Z,100463.88
2023-01-21T20:23:22.946Z,100462.25
2023-01-21T20:25:53.554Z,100470.28
2023-01-21T20:28:24.875Z,100470.41
2023-01-21T20:30:54.220Z,100471.47
2023-01-21T20:33:23.791Z,100470.63
2023-01-21T20:35:53.568Z,100478.38
2023-01-21T20:38:27.294Z,100477.44
2023-01-21T20:40:54.401Z,100494.66
2023-01-21T20:43:21.178Z,100489.44
2023-01-21T20:45:52.333Z,100485.88
2023-01-21T20:48:25.361Z,100493.78
2023-01-21T20:50:52.626Z,100495.47
2023-01-21T20:53:19.524Z,100486.78
2023-01-21T20:55:49.020Z,100493.69
2023-01-21T20:58:17.413Z,100489.38
2023-01-21T21:00:46.396Z,100491.25
2023-01-21T21:03:16.568Z,100484.19
2023-01-21T21:05:44.863Z,100489.25
2023-01-21T21:08:20.264Z,100485.81
2023-01-21T21:10:48.092Z,100491.84
2023-01-21T21:13:15.278Z,100490.88
2023-01-21T21:15:46.251Z,100495.13
2023-01-21T21:18:14.397Z,100491.69
2023-01-21T21:20:42.581Z,100488.22
2023-01-21T21:23:13.989Z,100488.47
2023-01-21T21:25:46.224Z,100503.19
2023-01-21T21:28:15.223Z,100493.56
2023-01-21T21:30:42.980Z,100496.25
2023-01-21T21:33:16.969Z,100488.34
2023-01-21T21:35:44.771Z,100493.56
2023-01-21T21:38:15.116Z,100489.25
2023-01-21T21:40:45.336Z,100484.19
2023-01-21T21:43:32.372Z,100491.09
2023-01-21T21:46:28.232Z,100498.09
2023-01-21T21:48:54.996Z,100504.94
2023-01-21T21:51:22.647Z,100498.75
2023-01-21T21:53:50.675Z,100500.56
2023-01-21T21:56:22.980Z,100498.13
2023-01-21T21:58:51.116Z,100500.50
2023-01-21T22:01:27.004Z,100507.44
2023-01-21T22:03:54.666Z,100511.78
2023-01-21T22:06:22.500Z,100509.16
2023-01-21T22:08:49.457Z,100502.13
2023-01-21T22:11:20.211Z,100500.38
2023-01-21T22:13:50.328Z,100497.91
2023-01-21T22:16:20.554Z,100502.22
2023-01-21T22:18:47.737Z,100502.09
2023-01-21T22:21:15.974Z,100495.19
2023-01-21T22:23:43.204Z,100489.00
2023-01-21T22:26:13.095Z,100486.44
2023-01-21T22:28:40.767Z,100490.78
2023-01-21T22:31:11.917Z,100497.69
2023-01-21T22:33:39.068Z,100497.72
2023-01-21T22:36:08.902Z,100484.72
2023-01-21T22:38:38.900Z,100484.53
2023-01-21T22:41:09.214Z,100492.34
2023-01-21T22:43:38.236Z,100495.09
2023-01-21T22:46:05.513Z,100490.78
2023-01-21T22:48:32.517Z,100489.84
2023-01-21T22:51:01.366Z,100482.97
2023-01-21T22:53:28.921Z,100480.34
2023-01-21T22:56:03.880Z,100479.41
2023-01-21T22:58:32.703Z,100475.31
2023-01-21T23:01:00.906Z,100473.34
2023-01-21T23:03:28.757Z,100467.50
2023-01-21T23:06:04.197Z,100466.66
2023-01-21T23:08:31.020Z,100474.31
2023-01-21T23:11:05.398Z,100477.94
2023-01-21T23:13:33.365Z,100490.66
2023-01-21T23:16:01.021Z,100495.25
2023-01-21T23:18:29.309Z,100490.78
2023-01-21T23:20:56.646Z,100489.88
2023-01-21T23:23:24.743Z,100499.34
2023-01-21T23:25:52.088Z,100504.38
2023-01-21T23:28:18.996Z,100497.41
2023-01-21T23:30:46.203Z,100503.50
2023-01-21T23:33:13.455Z,100507.06
2023-01-21T23:35:40.548Z,100501.06
2023-01-21T23:38:07.331Z,100496.66
2023-01-21T23:40:34.427Z,100507.03
2023-01-21T23:43:01.178Z,100502.75
2023-01-21T23:45:28.259Z,100504.38
2023-01-21T23:47:55.222Z,100506.03
2023-01-21T23:50:22.436Z,100506.00
2023-01-21T23:52:49.278Z,100505.28
2023-01-21T23:55:16.314Z,100500.78
2023-01-21T23:57:43.092Z,100491.19
